Aviation Digital Data Service (ADDS)

Output produced by TAFs form (0143 UTC 22 November 2017)
found at http://www.aviationweather.gov/adds/tafs/
 
METAR text: RJBE 220100Z 06014KT 9999 FEW025 BKN170 BKN/// 10/03 Q1021
Conditions at: RJBE (KOBE , JP) observed 0100 UTC 22 November 2017
Temperature: 10.0°C (50°F)
Dewpoint: 3.0°C (37°F) [RH = 62%]
Pressure (altimeter): 30.15 inches Hg (1021.0 mb)
Winds: from the ENE (60 degrees) at 16 MPH (14 knots; 7.3 m/s)
Visibility: 6 or more miles (10+ km)
Ceiling: 17000 feet AGL
Clouds: few clouds at 2500 feet AGL
broken clouds at 17000 feet AGL
Weather: no significant weather observed at this time